Time;durP1;ratioP1;P1;durP2;ratioP2;P2;SDS_P1;SDS_P2;PMS_P1;PMS_P2;Temp;Humidity;BMP_temperature;BMP_pressure;BME280_temperature;BME280_humidity;BME280_pressure;Samples;Min_cycle;Max_cycle;Signal;HPM_P1;HPM_P2
2024/01/05 00:01:07;;;;;;;;;;;17.20;55.00;;;;;;7402009;19;1852;-74
2024/01/05 00:03:32;;;;;;;;;;;17.10;55.00;;;;;;7399723;19;2756;-74
2024/01/05 00:05:58;;;;;;;;;;;17.10;55.70;;;;;;7400184;19;1572;-74
2024/01/05 00:08:23;;;;;;;;;;;17.10;54.90;;;;;;7397220;19;1356;-74
2024/01/05 00:10:49;;;;;;;;;;;17.00;55.10;;;;;;7396141;19;4319;-74
2024/01/05 00:13:14;;;;;;;;;;;17.00;55.10;;;;;;7401593;19;1707;-74
2024/01/05 00:15:40;;;;;;;;;;;16.90;55.10;;;;;;7398860;19;1681;-74
2024/01/05 00:18:06;;;;;;;;;;;16.90;55.20;;;;;;7394612;19;3113;-74
2024/01/05 00:20:32;;;;;;;;;;;16.90;55.20;;;;;;7400553;19;1514;-74
2024/01/05 00:22:57;;;;;;;;;;;16.90;55.40;;;;;;7400580;19;1816;-74
2024/01/05 00:25:22;;;;;;;;;;;16.90;55.30;;;;;;7400340;19;2865;-74
2024/01/05 00:27:50;;;;;;;;;;;16.80;55.20;;;;;;7403122;19;878;-74
2024/01/05 00:30:15;;;;;;;;;;;16.80;55.40;;;;;;7397993;19;1844;-74
2024/01/05 00:32:41;;;;;;;;;;;16.80;55.30;;;;;;7397705;19;2515;-74
2024/01/05 00:35:07;;;;;;;;;;;16.70;55.40;;;;;;7401489;19;1688;-74
2024/01/05 00:37:32;;;;;;;;;;;16.70;55.40;;;;;;7400301;19;1531;-74
2024/01/05 00:39:58;;;;;;;;;;;16.70;55.60;;;;;;7398118;19;2645;-74
2024/01/05 00:42:23;;;;;;;;;;;16.60;55.60;;;;;;7399503;19;1528;-74
2024/01/05 00:44:49;;;;;;;;;;;16.60;55.60;;;;;;7400975;19;1544;-74
2024/01/05 00:47:15;;;;;;;;;;;16.60;55.70;;;;;;7397939;19;3402;-74
2024/01/05 00:49:40;;;;;;;;;;;16.60;55.70;;;;;;7399115;19;1867;-74
2024/01/05 00:52:06;;;;;;;;;;;16.60;55.60;;;;;;7403235;19;1668;-74
2024/01/05 00:54:31;;;;;;;;;;;16.60;55.60;;;;;;7396731;19;2804;-74
2024/01/05 00:56:56;;;;;;;;;;;16.50;55.70;;;;;;7396310;19;966;-74
2024/01/05 00:59:22;;;;;;;;;;;16.50;55.50;;;;;;7400868;19;1662;-73
2024/01/05 01:01:47;;;;;;;;;;;16.50;55.70;;;;;;7396904;19;2799;-74
2024/01/05 01:04:13;;;;;;;;;;;16.50;55.80;;;;;;7398794;19;1794;-74
2024/01/05 01:06:39;;;;;;;;;;;16.40;55.70;;;;;;7398068;19;1556;-74
2024/01/05 01:09:04;;;;;;;;;;;16.40;55.80;;;;;;7396174;19;2813;-75
2024/01/05 01:11:30;;;;;;;;;;;16.40;55.80;;;;;;7398031;19;1304;-74
2024/01/05 01:13:55;;;;;;;;;;;16.40;55.80;;;;;;7399324;19;1517;-74
2024/01/05 01:16:20;;;;;;;;;;;16.30;55.80;;;;;;7397147;19;2789;-74
2024/01/05 01:18:46;;;;;;;;;;;16.30;55.80;;;;;;7397164;19;1314;-74
2024/01/05 01:21:11;;;;;;;;;;;16.30;55.80;;;;;;7397566;19;1590;-74
2024/01/05 01:23:37;;;;;;;;;;;16.30;55.80;;;;;;7396762;19;2705;-74
2024/01/05 01:26:02;;;;;;;;;;;16.30;55.90;;;;;;7397324;19;2827;-74
2024/01/05 01:28:28;;;;;;;;;;;16.20;55.70;;;;;;7400867;19;3173;-74
2024/01/05 01:30:53;;;;;;;;;;;16.20;55.80;;;;;;7391493;19;3510;-74
2024/01/05 01:33:19;;;;;;;;;;;16.20;55.80;;;;;;7399142;19;1531;-74
2024/01/05 01:35:44;;;;;;;;;;;16.10;55.80;;;;;;7396389;19;1630;-74
2024/01/05 01:38:10;;;;;;;;;;;16.20;55.80;;;;;;7396030;19;3070;-74
2024/01/05 01:40:35;;;;;;;;;;;16.10;55.80;;;;;;7395628;19;1511;-74
2024/01/05 01:43:01;;;;;;;;;;;16.10;55.80;;;;;;7398034;19;1756;-74
2024/01/05 01:45:26;;;;;;;;;;;16.10;55.80;;;;;;7396574;19;3493;-74
2024/01/05 01:47:51;;;;;;;;;;;16.10;55.90;;;;;;7399066;19;1765;-74
2024/01/05 01:50:17;;;;;;;;;;;16.10;55.90;;;;;;7396940;19;2349;-74
2024/01/05 01:52:42;;;;;;;;;;;16.10;56.00;;;;;;7397888;19;3639;-73
2024/01/05 01:55:08;;;;;;;;;;;16.00;55.90;;;;;;7395775;19;1437;-74
2024/01/05 01:57:34;;;;;;;;;;;16.00;56.00;;;;;;7396047;19;1652;-74
2024/01/05 01:59:59;;;;;;;;;;;16.00;55.90;;;;;;7396092;19;2958;-74
2024/01/05 02:02:25;;;;;;;;;;;16.00;56.00;;;;;;7393741;19;4046;-74
2024/01/05 02:04:50;;;;;;;;;;;15.90;56.00;;;;;;7397633;19;1601;-74
2024/01/05 02:07:16;;;;;;;;;;;15.90;55.90;;;;;;7394724;19;2532;-74
2024/01/05 02:09:41;;;;;;;;;;;16.00;55.80;;;;;;7396024;19;1860;-74
2024/01/05 02:12:07;;;;;;;;;;;15.90;55.60;;;;;;7396701;19;1911;-74
2024/01/05 02:14:33;;;;;;;;;;;16.00;55.50;;;;;;7396477;19;3008;-74
2024/01/05 02:16:59;;;;;;;;;;;16.10;54.90;;;;;;7397861;19;1532;-74
2024/01/05 02:19:25;;;;;;;;;;;16.30;54.90;;;;;;7398219;19;1596;-74
2024/01/05 02:21:51;;;;;;;;;;;16.50;54.60;;;;;;7394825;19;2479;-74
2024/01/05 02:24:16;;;;;;;;;;;16.70;54.10;;;;;;7396724;19;906;-74
2024/01/05 02:26:42;;;;;;;;;;;16.90;53.50;;;;;;7397100;19;1477;-74
2024/01/05 02:29:08;;;;;;;;;;;17.30;52.90;;;;;;7394592;19;3254;-74
2024/01/05 02:31:33;;;;;;;;;;;17.70;52.30;;;;;;7397592;19;1567;-74
2024/01/05 02:33:59;;;;;;;;;;;18.00;51.50;;;;;;7396319;19;1847;-74
2024/01/05 02:36:24;;;;;;;;;;;18.30;51.00;;;;;;7394823;19;2791;-74
2024/01/05 02:38:50;;;;;;;;;;;18.60;50.30;;;;;;7397040;19;1602;-74
2024/01/05 02:41:15;;;;;;;;;;;18.90;49.80;;;;;;7395453;19;1484;-74
2024/01/05 02:43:43;;;;;;;;;;;19.00;49.30;;;;;;7396872;19;2829;-74
2024/01/05 02:46:09;;;;;;;;;;;19.00;49.20;;;;;;7397251;19;1569;-74
2024/01/05 02:48:34;;;;;;;;;;;19.00;49.00;;;;;;7395956;19;1493;-74
2024/01/05 02:51:00;;;;;;;;;;;19.00;49.10;;;;;;7392789;19;3233;-74
2024/01/05 02:53:25;;;;;;;;;;;18.90;49.20;;;;;;7398136;19;1319;-75
2024/01/05 02:55:51;;;;;;;;;;;18.70;49.50;;;;;;7397570;19;1572;-74
2024/01/05 02:58:16;;;;;;;;;;;18.70;49.50;;;;;;7394073;19;2885;-74
2024/01/05 03:00:42;;;;;;;;;;;18.60;49.90;;;;;;7396421;19;1564;-74
2024/01/05 03:03:07;;;;;;;;;;;18.50;50.80;;;;;;7394837;19;1612;-74
2024/01/05 03:05:32;;;;;;;;;;;18.50;50.20;;;;;;7394768;19;3104;-74
2024/01/05 03:07:58;;;;;;;;;;;18.40;50.30;;;;;;7397167;19;1409;-74
2024/01/05 03:10:23;;;;;;;;;;;18.30;50.30;;;;;;7394538;19;1845;-74
2024/01/05 03:12:51;;;;;;;;;;;18.20;50.40;;;;;;7394331;19;3021;-74
2024/01/05 03:15:17;;;;;;;;;;;18.20;50.40;;;;;;7397120;19;1763;-74
2024/01/05 03:17:42;;;;;;;;;;;18.10;50.60;;;;;;7393423;19;1604;-74
2024/01/05 03:20:09;;;;;;;;;;;18.10;50.50;;;;;;7394999;19;4009;-74
2024/01/05 03:22:35;;;;;;;;;;;18.10;50.50;;;;;;7394221;19;2704;-74
2024/01/05 03:25:00;;;;;;;;;;;18.00;50.50;;;;;;7396536;19;2963;-74
2024/01/05 03:27:26;;;;;;;;;;;18.00;50.50;;;;;;7394427;19;4144;-74
2024/01/05 03:29:51;;;;;;;;;;;18.00;50.70;;;;;;7394212;19;1854;-74
2024/01/05 03:32:16;;;;;;;;;;;17.90;50.70;;;;;;7396126;19;2672;-74
2024/01/05 03:34:42;;;;;;;;;;;17.80;51.00;;;;;;7395579;19;3101;-74
2024/01/05 03:37:07;;;;;;;;;;;17.70;51.20;;;;;;7394208;19;822;-74
2024/01/05 03:39:33;;;;;;;;;;;17.70;51.40;;;;;;7393683;19;2946;-74
2024/01/05 03:41:58;;;;;;;;;;;17.60;51.50;;;;;;7394030;19;3751;-74
2024/01/05 03:44:23;;;;;;;;;;;17.60;51.40;;;;;;7394755;19;1632;-75
2024/01/05 03:46:49;;;;;;;;;;;17.60;51.30;;;;;;7392969;19;3334;-74
2024/01/05 03:49:15;;;;;;;;;;;17.70;51.20;;;;;;7394135;19;3028;-74
2024/01/05 03:51:40;;;;;;;;;;;17.80;51.00;;;;;;7394327;19;1531;-74
2024/01/05 03:54:06;;;;;;;;;;;17.80;50.80;;;;;;7396860;19;3972;-74
2024/01/05 03:56:57;;;;;;;;;;;17.90;51.00;;;;;;7404963;19;1705;-74
2024/01/05 03:59:23;;;;;;;;;;;18.00;50.80;;;;;;7399477;19;1423;-74
2024/01/05 04:01:49;;;;;;;;;;;18.10;50.80;;;;;;7398635;19;3304;-74
2024/01/05 04:04:14;;;;;;;;;;;18.20;50.60;;;;;;7402970;19;1492;-75
2024/01/05 04:06:40;;;;;;;;;;;18.20;50.40;;;;;;7401301;19;1544;-74
2024/01/05 04:09:09;;;;;;;;;;;18.20;50.40;;;;;;7392472;19;4205;-74
2024/01/05 04:11:35;;;;;;;;;;;18.10;50.40;;;;;;7400875;19;1527;-74
2024/01/05 04:14:01;;;;;;;;;;;18.00;50.30;;;;;;7402814;19;1480;-74
2024/01/05 04:16:26;;;;;;;;;;;17.90;50.30;;;;;;7399109;19;4131;-74
2024/01/05 04:18:52;;;;;;;;;;;17.90;50.30;;;;;;7399796;19;1697;-74
2024/01/05 04:21:17;;;;;;;;;;;17.80;50.30;;;;;;7401343;19;1554;-74
2024/01/05 04:23:43;;;;;;;;;;;17.80;50.50;;;;;;7398894;19;3330;-74
2024/01/05 04:26:08;;;;;;;;;;;17.80;50.60;;;;;;7399350;19;1635;-74
2024/01/05 04:28:34;;;;;;;;;;;17.70;50.60;;;;;;7401611;19;1461;-74
2024/01/05 04:30:59;;;;;;;;;;;17.70;50.70;;;;;;7394478;19;2615;-74
2024/01/05 04:33:24;;;;;;;;;;;17.60;50.90;;;;;;7397685;19;1951;-74
2024/01/05 04:35:50;;;;;;;;;;;17.60;51.10;;;;;;7400714;19;1489;-74
2024/01/05 04:38:15;;;;;;;;;;;17.50;51.20;;;;;;7399325;19;3743;-74
2024/01/05 04:40:41;;;;;;;;;;;17.50;51.20;;;;;;7400521;19;1486;-75
2024/01/05 04:43:07;;;;;;;;;;;17.50;51.20;;;;;;7396957;19;1516;-75
2024/01/05 04:45:34;;;;;;;;;;;17.50;51.10;;;;;;7398080;19;2684;-75
2024/01/05 04:48:00;;;;;;;;;;;17.60;50.90;;;;;;7398729;19;1559;-75
2024/01/05 04:50:25;;;;;;;;;;;17.70;50.70;;;;;;7399610;19;1846;-74
2024/01/05 04:52:50;;;;;;;;;;;17.70;50.80;;;;;;7400378;19;2700;-74
2024/01/05 04:55:16;;;;;;;;;;;17.80;50.60;;;;;;7402378;19;1576;-74
2024/01/05 04:57:41;;;;;;;;;;;17.90;50.50;;;;;;7400018;19;1503;-74
2024/01/05 05:00:08;;;;;;;;;;;18.00;50.40;;;;;;7398202;19;2859;-74
2024/01/05 05:02:33;;;;;;;;;;;18.10;50.30;;;;;;7398275;19;3240;-74
2024/01/05 05:04:59;;;;;;;;;;;18.10;50.30;;;;;;7398563;19;1572;-74
2024/01/05 05:07:24;;;;;;;;;;;18.00;50.10;;;;;;7396313;19;4375;-74
2024/01/05 05:09:50;;;;;;;;;;;18.00;50.30;;;;;;7398574;19;1857;-74
2024/01/05 05:12:15;;;;;;;;;;;17.90;50.10;;;;;;7399194;19;3491;-74
2024/01/05 05:14:41;;;;;;;;;;;17.90;50.10;;;;;;7397511;19;4079;-74
2024/01/05 05:17:06;;;;;;;;;;;17.80;50.00;;;;;;7400355;19;1744;-74
2024/01/05 05:19:32;;;;;;;;;;;17.80;50.10;;;;;;7399212;19;1441;-74
2024/01/05 05:21:57;;;;;;;;;;;17.70;50.10;;;;;;7400039;19;3995;-74
2024/01/05 05:24:23;;;;;;;;;;;17.70;50.30;;;;;;7396282;19;1685;-75
2024/01/05 05:26:48;;;;;;;;;;;17.60;50.40;;;;;;7399957;19;1492;-74
2024/01/05 05:29:13;;;;;;;;;;;17.60;50.60;;;;;;7396808;19;2956;-75
2024/01/05 05:31:39;;;;;;;;;;;17.50;50.80;;;;;;7398088;19;1517;-74
2024/01/05 05:34:04;;;;;;;;;;;17.50;50.80;;;;;;7399573;19;1454;-74
2024/01/05 05:36:30;;;;;;;;;;;17.40;50.90;;;;;;7396488;19;3950;-74
2024/01/05 05:38:55;;;;;;;;;;;17.50;50.80;;;;;;7396318;19;1636;-74
2024/01/05 05:41:21;;;;;;;;;;;17.50;50.60;;;;;;7395580;19;1552;-74
2024/01/05 05:43:47;;;;;;;;;;;17.60;50.50;;;;;;7395844;19;3583;-74
2024/01/05 05:46:12;;;;;;;;;;;17.70;50.40;;;;;;7400520;19;1439;-74
2024/01/05 05:48:37;;;;;;;;;;;17.70;50.40;;;;;;7398463;19;1592;-74
2024/01/05 05:51:04;;;;;;;;;;;17.70;50.30;;;;;;7393512;19;2688;-75
2024/01/05 05:53:29;;;;;;;;;;;17.80;50.30;;;;;;7397654;19;1549;-74
2024/01/05 05:55:55;;;;;;;;;;;17.90;50.20;;;;;;7397959;19;1456;-75
2024/01/05 05:58:21;;;;;;;;;;;17.90;50.00;;;;;;7395908;19;2814;-74
2024/01/05 06:00:47;;;;;;;;;;;17.90;50.00;;;;;;7397981;19;1486;-74
2024/01/05 06:03:13;;;;;;;;;;;17.90;50.00;;;;;;7396752;19;1776;-75
2024/01/05 06:05:38;;;;;;;;;;;17.80;50.00;;;;;;7395496;19;4228;-75
2024/01/05 06:08:04;;;;;;;;;;;17.80;49.80;;;;;;7396642;19;1498;-74
2024/01/05 06:10:29;;;;;;;;;;;17.80;49.80;;;;;;7396120;19;1847;-74
2024/01/05 06:12:54;;;;;;;;;;;17.80;49.80;;;;;;7395554;19;2758;-73
2024/01/05 06:15:20;;;;;;;;;;;17.70;49.90;;;;;;7396671;19;1451;-74
2024/01/05 06:17:45;;;;;;;;;;;17.70;49.90;;;;;;7395263;19;1504;-74
2024/01/05 06:20:11;;;;;;;;;;;17.70;50.10;;;;;;7396668;19;2694;-75
2024/01/05 06:22:36;;;;;;;;;;;17.60;50.10;;;;;;7394907;19;2939;-74
2024/01/05 06:25:02;;;;;;;;;;;17.60;50.10;;;;;;7398421;19;1447;-74
2024/01/05 06:27:27;;;;;;;;;;;17.60;50.40;;;;;;7394256;19;2708;-74
2024/01/05 06:29:53;;;;;;;;;;;17.50;50.30;;;;;;7396608;19;1853;-75
2024/01/05 06:32:18;;;;;;;;;;;17.50;50.50;;;;;;7398381;19;1859;-75
2024/01/05 06:34:44;;;;;;;;;;;17.60;50.40;;;;;;7394988;19;2665;-75
2024/01/05 06:37:09;;;;;;;;;;;17.60;50.20;;;;;;7394858;19;3321;-75
2024/01/05 06:39:35;;;;;;;;;;;17.70;50.00;;;;;;7397731;19;3107;-75
2024/01/05 06:42:00;;;;;;;;;;;17.70;49.80;;;;;;7391902;19;4270;-74
2024/01/05 06:44:25;;;;;;;;;;;17.80;50.00;;;;;;7397986;19;1819;-75
2024/01/05 06:46:52;;;;;;;;;;;17.80;49.90;;;;;;7394580;19;3062;-75
2024/01/05 06:49:18;;;;;;;;;;;17.90;50.00;;;;;;7392892;19;2938;-75
2024/01/05 06:51:43;;;;;;;;;;;17.90;49.80;;;;;;7396210;19;1538;-75
2024/01/05 06:54:09;;;;;;;;;;;17.90;49.70;;;;;;7398172;19;1350;-74
2024/01/05 06:56:34;;;;;;;;;;;17.90;49.90;;;;;;7393768;19;4400;-75
2024/01/05 06:59:00;;;;;;;;;;;17.90;49.90;;;;;;7396510;19;1522;-75
2024/01/05 07:01:25;;;;;;;;;;;17.90;49.80;;;;;;7395963;19;3968;-74
2024/01/05 07:03:51;;;;;;;;;;;17.80;49.80;;;;;;7391759;19;2883;-74
2024/01/05 07:06:17;;;;;;;;;;;17.80;49.90;;;;;;7398002;19;1409;-74
2024/01/05 07:08:42;;;;;;;;;;;17.90;50.20;;;;;;7395059;19;1895;-74
2024/01/05 07:11:09;;;;;;;;;;;18.40;49.70;;;;;;7390390;19;3745;-74
2024/01/05 07:13:35;;;;;;;;;;;18.90;49.20;;;;;;7395854;19;1496;-74
2024/01/05 07:16:00;;;;;;;;;;;19.30;48.90;;;;;;7394644;19;2962;-74
2024/01/05 07:18:26;;;;;;;;;;;19.80;47.50;;;;;;7393687;19;2848;-74
2024/01/05 07:20:51;;;;;;;;;;;20.10;46.80;;;;;;7395415;19;1620;-74
2024/01/05 07:23:16;;;;;;;;;;;20.30;46.30;;;;;;7395329;19;1508;-75
2024/01/05 07:25:42;;;;;;;;;;;20.40;46.00;;;;;;7384995;19;3598;-76
2024/01/05 07:28:08;;;;;;;;;;;20.40;45.70;;;;;;7397126;19;3027;-74
2024/01/05 07:30:33;;;;;;;;;;;20.40;45.50;;;;;;7397432;19;3494;-75
2024/01/05 07:32:59;;;;;;;;;;;20.50;45.40;;;;;;7402044;19;1564;-75
2024/01/05 07:35:24;;;;;;;;;;;20.40;45.60;;;;;;7395975;19;3440;-75
2024/01/05 07:37:50;;;;;;;;;;;20.40;45.70;;;;;;7402302;19;3113;-75
2024/01/05 07:40:15;;;;;;;;;;;20.50;45.80;;;;;;7399317;19;1435;-75
2024/01/05 07:42:41;;;;;;;;;;;20.50;45.90;;;;;;7397253;19;4060;-74
2024/01/05 07:45:06;;;;;;;;;;;20.40;46.10;;;;;;7402849;19;2570;-75
2024/01/05 07:47:32;;;;;;;;;;;20.50;46.00;;;;;;7396771;19;3529;-74
2024/01/05 07:49:57;;;;;;;;;;;20.40;46.10;;;;;;7398604;19;3110;-75
2024/01/05 07:52:23;;;;;;;;;;;20.40;46.20;;;;;;7395693;19;4507;-74
2024/01/05 07:54:48;;;;;;;;;;;20.40;46.30;;;;;;7397086;19;3627;-75
2024/01/05 07:57:14;;;;;;;;;;;20.40;46.20;;;;;;7399210;19;3359;-75
2024/01/05 07:59:39;;;;;;;;;;;20.50;46.10;;;;;;7404347;19;1499;-75
2024/01/05 08:02:05;;;;;;;;;;;20.50;46.30;;;;;;7396674;19;3619;-75
2024/01/05 08:04:30;;;;;;;;;;;20.50;46.30;;;;;;7399347;19;3366;-75
2024/01/05 08:06:55;;;;;;;;;;;20.40;46.30;;;;;;7396042;19;3696;-74
2024/01/05 08:09:21;;;;;;;;;;;20.50;46.20;;;;;;7394119;19;2857;-74
2024/01/05 08:11:47;;;;;;;;;;;20.50;46.20;;;;;;7398753;19;3021;-75
2024/01/05 08:14:12;;;;;;;;;;;20.50;46.30;;;;;;7401079;19;3353;-75
2024/01/05 08:16:38;;;;;;;;;;;20.60;46.20;;;;;;7400781;19;1518;-74
2024/01/05 08:19:03;;;;;;;;;;;20.90;45.80;;;;;;7400298;19;2882;-75
2024/01/05 08:21:29;;;;;;;;;;;21.20;45.40;;;;;;7398887;19;2813;-75
2024/01/05 08:23:56;;;;;;;;;;;21.20;45.30;;;;;;7401001;19;3160;-76
2024/01/05 08:26:21;;;;;;;;;;;21.20;45.40;;;;;;7401517;19;4068;-76
2024/01/05 08:28:47;;;;;;;;;;;21.30;45.20;;;;;;7400685;19;3373;-75
2024/01/05 08:31:13;;;;;;;;;;;21.30;45.10;;;;;;7396253;19;1904;-75
2024/01/05 08:33:38;;;;;;;;;;;21.30;45.00;;;;;;7400648;19;1218;-76
2024/01/05 08:36:03;;;;;;;;;;;21.20;45.00;;;;;;7397564;19;2514;-75
2024/01/05 08:38:29;;;;;;;;;;;21.30;45.00;;;;;;7404628;19;1607;-75
2024/01/05 08:40:55;;;;;;;;;;;21.20;45.10;;;;;;7399693;19;1638;-76
2024/01/05 08:43:20;;;;;;;;;;;21.30;45.20;;;;;;7399356;19;1496;-75
2024/01/05 08:45:46;;;;;;;;;;;21.30;45.20;;;;;;7401714;19;1604;-75
2024/01/05 08:48:11;;;;;;;;;;;21.20;45.30;;;;;;7396860;19;831;-75
2024/01/05 08:50:37;;;;;;;;;;;21.30;45.10;;;;;;7398547;19;1846;-76
2024/01/05 08:53:03;;;;;;;;;;;21.30;45.00;;;;;;7392962;19;2941;-75
2024/01/05 08:55:28;;;;;;;;;;;21.30;45.60;;;;;;7393663;19;3484;-75
2024/01/05 08:57:54;;;;;;;;;;;21.40;44.90;;;;;;7395513;19;2946;-75
2024/01/05 09:00:19;;;;;;;;;;;21.30;45.00;;;;;;7398519;19;2655;-75
2024/01/05 09:02:45;;;;;;;;;;;21.20;45.10;;;;;;7399454;19;1495;-75
2024/01/05 09:05:10;;;;;;;;;;;21.20;45.00;;;;;;7396880;19;3143;-75
2024/01/05 09:07:35;;;;;;;;;;;21.20;45.10;;;;;;7399355;19;1698;-76
2024/01/05 09:10:01;;;;;;;;;;;21.20;45.30;;;;;;7396611;19;1868;-75
2024/01/05 09:12:27;;;;;;;;;;;21.30;45.00;;;;;;7395123;19;3645;-75
2024/01/05 09:14:52;;;;;;;;;;;21.30;45.00;;;;;;7396937;19;3443;-76
2024/01/05 09:17:18;;;;;;;;;;;21.30;45.10;;;;;;7398987;19;1545;-76
2024/01/05 09:19:44;;;;;;;;;;;21.30;45.10;;;;;;7398089;19;1619;-75
2024/01/05 09:22:10;;;;;;;;;;;21.30;45.00;;;;;;7398518;19;1611;-75
2024/01/05 09:24:35;;;;;;;;;;;21.30;45.00;;;;;;7396584;19;2835;-75
2024/01/05 09:27:04;;;;;;;;;;;21.30;45.20;;;;;;7397817;19;1539;-76
2024/01/05 09:29:32;;;;;;;;;;;21.40;44.90;;;;;;7397802;19;1853;-76
2024/01/05 09:31:58;;;;;;;;;;;21.40;44.80;;;;;;7400555;19;1736;-76
2024/01/05 09:34:23;;;;;;;;;;;21.40;44.70;;;;;;7398644;19;1555;-76
2024/01/05 09:36:49;;;;;;;;;;;21.40;44.90;;;;;;7397786;19;2644;-75
2024/01/05 09:39:15;;;;;;;;;;;21.50;44.80;;;;;;7398333;19;1587;-76
2024/01/05 09:41:43;;;;;;;;;;;21.40;44.80;;;;;;7396247;19;3616;-76
2024/01/05 09:44:10;;;;;;;;;;;21.30;44.80;;;;;;7394746;19;4071;-76
2024/01/05 09:46:37;;;;;;;;;;;21.40;45.00;;;;;;7397061;19;1594;-75
2024/01/05 09:49:03;;;;;;;;;;;21.40;45.00;;;;;;7397479;19;1854;-76
2024/01/05 09:51:29;;;;;;;;;;;21.40;44.80;;;;;;7394154;19;3117;-75
2024/01/05 09:53:54;;;;;;;;;;;21.40;44.80;;;;;;7398660;19;1520;-76
2024/01/05 09:56:20;;;;;;;;;;;21.30;45.00;;;;;;7396836;19;2029;-76
2024/01/05 09:58:45;;;;;;;;;;;21.40;45.60;;;;;;7397458;19;1658;-76
2024/01/05 10:01:14;;;;;;;;;;;21.40;44.80;;;;;;7396569;19;1788;-76
2024/01/05 10:03:40;;;;;;;;;;;21.40;44.80;;;;;;7399619;19;1623;-75
2024/01/05 10:06:05;;;;;;;;;;;21.40;44.80;;;;;;7394962;19;2586;-74
2024/01/05 10:08:31;;;;;;;;;;;21.40;44.80;;;;;;7397483;19;1889;-75
2024/01/05 10:10:58;;;;;;;;;;;21.40;44.80;;;;;;7395459;19;1858;-75
2024/01/05 10:13:24;;;;;;;;;;;21.50;44.90;;;;;;7397006;19;1658;-75
2024/01/05 10:15:55;;;;;;;;;;;21.50;44.70;;;;;;7397725;19;1887;-75
2024/01/05 10:18:21;;;;;;;;;;;21.50;44.60;;;;;;7396550;19;1525;-76
2024/01/05 10:20:46;;;;;;;;;;;21.50;44.70;;;;;;7395158;19;3361;-74
2024/01/05 10:23:13;;;;;;;;;;;21.50;44.60;;;;;;7397426;19;1808;-75
2024/01/05 10:25:39;;;;;;;;;;;21.60;44.70;;;;;;7393816;19;3191;-75
2024/01/05 10:28:18;;;;;;;;;;;21.50;44.60;;;;;;7395434;19;1712;-75
2024/01/05 10:30:44;;;;;;;;;;;21.40;44.80;;;;;;7389251;19;3287;-75
2024/01/05 10:33:09;;;;;;;;;;;21.40;44.80;;;;;;7392388;19;3697;-75
2024/01/05 10:35:35;;;;;;;;;;;21.30;44.80;;;;;;7396863;19;1725;-76
2024/01/05 10:38:04;;;;;;;;;;;21.40;44.80;;;;;;7396148;19;1958;-75
2024/01/05 10:40:30;;;;;;;;;;;21.40;44.70;;;;;;7397092;19;1563;-75
2024/01/05 10:43:13;;;;;;;;;;;21.40;44.70;;;;;;7398193;19;1959;-75
2024/01/05 10:45:40;;;;;;;;;;;21.50;44.70;;;;;;7394153;19;1345;-75
2024/01/05 10:48:07;;;;;;;;;;;21.40;44.70;;;;;;7395580;19;2249;-75
2024/01/05 10:50:34;;;;;;;;;;;21.40;44.80;;;;;;7395290;19;1861;-75
2024/01/05 10:53:08;;;;;;;;;;;21.40;44.70;;;;;;7396238;19;1681;-75
2024/01/05 10:55:34;;;;;;;;;;;21.30;44.90;;;;;;7395134;19;3037;-75
2024/01/05 10:58:00;;;;;;;;;;;21.50;44.60;;;;;;7394729;19;1527;-75
2024/01/05 11:00:26;;;;;;;;;;;21.60;44.50;;;;;;7393283;19;2948;-75
2024/01/05 11:02:52;;;;;;;;;;;21.50;44.50;;;;;;7397274;19;2946;-75
2024/01/05 11:05:18;;;;;;;;;;;21.50;44.50;;;;;;7403816;19;1638;-75
2024/01/05 11:07:43;;;;;;;;;;;21.50;45.20;;;;;;7399428;19;3147;-75
2024/01/05 11:10:31;;;;;;;;;;;21.50;44.60;;;;;;7405164;19;1977;-75
2024/01/05 11:13:16;;;;;;;;;;;21.50;44.40;;;;;;7402431;19;1951;-75
2024/01/05 11:15:41;;;;;;;;;;;21.40;44.50;;;;;;7401997;19;1334;-75
2024/01/05 11:18:14;;;;;;;;;;;21.40;44.50;;;;;;7397980;19;3650;-75
2024/01/05 11:21:00;;;;;;;;;;;21.50;44.50;;;;;;7402292;19;1569;-75
2024/01/05 11:23:25;;;;;;;;;;;21.60;44.40;;;;;;7398731;19;3025;-75
2024/01/05 11:25:53;;;;;;;;;;;21.60;44.30;;;;;;7400000;19;3094;-75
2024/01/05 11:28:39;;;;;;;;;;;21.60;44.50;;;;;;7400673;19;1428;-75
2024/01/05 11:31:04;;;;;;;;;;;21.50;44.40;;;;;;7398553;19;2139;-74
2024/01/05 11:33:49;;;;;;;;;;;21.70;44.50;;;;;;7400090;19;1627;-75
2024/01/05 11:36:33;;;;;;;;;;;21.70;44.30;;;;;;7399956;19;2205;-75
2024/01/05 11:38:58;;;;;;;;;;;21.60;44.30;;;;;;7402986;19;1530;-75
2024/01/05 11:41:24;;;;;;;;;;;21.60;44.30;;;;;;7403073;19;1432;-74
2024/01/05 11:43:50;;;;;;;;;;;21.60;44.30;;;;;;7401252;19;1724;-74
2024/01/05 11:46:16;;;;;;;;;;;21.60;44.30;;;;;;7398951;19;2556;-74
2024/01/05 11:48:41;;;;;;;;;;;21.70;44.10;;;;;;7402726;19;2020;-74
2024/01/05 11:51:07;;;;;;;;;;;21.60;44.10;;;;;;7401540;19;1850;-74
2024/01/05 11:53:32;;;;;;;;;;;21.60;44.10;;;;;;7401235;19;1486;-75
2024/01/05 11:55:58;;;;;;;;;;;21.60;44.20;;;;;;7402656;19;1610;-74
2024/01/05 11:58:28;;;;;;;;;;;21.60;44.20;;;;;;7402221;19;1173;-75
2024/01/05 12:01:00;;;;;;;;;;;21.50;44.10;;;;;;7401296;19;1479;-75
2024/01/05 12:03:26;;;;;;;;;;;21.60;44.10;;;;;;7401578;19;1357;-74
2024/01/05 12:05:52;;;;;;;;;;;21.70;44.00;;;;;;7399082;19;3088;-74
2024/01/05 12:08:18;;;;;;;;;;;21.70;43.80;;;;;;7394914;19;2785;-74
2024/01/05 12:10:43;;;;;;;;;;;21.60;43.80;;;;;;7397092;19;2620;-74
2024/01/05 12:13:08;;;;;;;;;;;21.80;43.80;;;;;;7401217;19;1530;-74
2024/01/05 12:15:35;;;;;;;;;;;21.70;43.70;;;;;;7399019;19;1712;-75
2024/01/05 12:18:03;;;;;;;;;;;21.60;43.80;;;;;;7399851;19;1795;-74
2024/01/05 12:20:32;;;;;;;;;;;21.70;43.80;;;;;;7401265;19;1870;-74
2024/01/05 12:22:58;;;;;;;;;;;21.60;43.50;;;;;;7401438;19;1601;-75
2024/01/05 12:25:23;;;;;;;;;;;21.50;43.80;;;;;;7399654;19;1658;-75
2024/01/05 12:27:49;;;;;;;;;;;21.70;43.90;;;;;;7396380;19;3269;-73
2024/01/05 12:30:14;;;;;;;;;;;21.60;43.80;;;;;;7400687;19;1842;-74
2024/01/05 12:32:40;;;;;;;;;;;21.50;43.90;;;;;;7400908;19;1607;-74
2024/01/05 12:35:05;;;;;;;;;;;21.20;44.10;;;;;;7397955;19;986;-74
2024/01/05 12:37:34;;;;;;;;;;;20.90;44.70;;;;;;7398802;19;1556;-74
2024/01/05 12:40:11;;;;;;;;;;;20.70;45.00;;;;;;7397374;19;1912;-74
2024/01/05 12:42:40;;;;;;;;;;;20.50;45.20;;;;;;7398562;19;1478;-74
2024/01/05 12:45:06;;;;;;;;;;;20.40;45.60;;;;;;7400036;19;1208;-74
2024/01/05 12:47:32;;;;;;;;;;;20.20;45.90;;;;;;7394214;19;4178;-74
2024/01/05 12:49:57;;;;;;;;;;;20.10;46.20;;;;;;7396211;19;3094;-74
2024/01/05 12:52:36;;;;;;;;;;;20.00;46.40;;;;;;7399739;19;1313;-74
2024/01/05 12:55:03;;;;;;;;;;;19.90;46.60;;;;;;7400670;19;1554;-74
2024/01/05 12:57:29;;;;;;;;;;;19.80;46.20;;;;;;7400160;19;1178;-74
2024/01/05 13:00:05;;;;;;;;;;;19.70;47.30;;;;;;7398987;19;3618;-74
2024/01/05 13:02:39;;;;;;;;;;;19.60;47.90;;;;;;7399608;19;1369;-74
2024/01/05 13:05:43;;;;;;;;;;;19.40;47.50;;;;;;7399725;19;1379;-74
2024/01/05 13:08:09;;;;;;;;;;;19.30;47.30;;;;;;7391518;19;3387;-74
2024/01/05 13:10:34;;;;;;;;;;;19.20;46.90;;;;;;7394784;19;1853;-74
2024/01/05 13:13:00;;;;;;;;;;;19.10;47.10;;;;;;7397300;19;1447;-74
2024/01/05 13:15:25;;;;;;;;;;;19.00;46.80;;;;;;7399250;19;1676;-73
2024/01/05 13:17:51;;;;;;;;;;;19.00;47.20;;;;;;7401118;19;1176;-75
2024/01/05 13:20:18;;;;;;;;;;;18.90;47.70;;;;;;7399512;19;1203;-74
2024/01/05 13:22:44;;;;;;;;;;;18.90;47.40;;;;;;7399835;19;1585;-75
2024/01/05 13:25:11;;;;;;;;;;;18.80;47.10;;;;;;7399023;19;1618;-74
2024/01/05 13:27:38;;;;;;;;;;;18.80;47.50;;;;;;7398852;19;1616;-74
2024/01/05 13:30:07;;;;;;;;;;;18.80;47.70;;;;;;7400636;19;1850;-74
2024/01/05 13:32:32;;;;;;;;;;;18.70;47.40;;;;;;7399865;19;1277;-75
2024/01/05 13:34:58;;;;;;;;;;;18.70;47.60;;;;;;7399118;19;1231;-74
2024/01/05 13:37:24;;;;;;;;;;;18.70;47.80;;;;;;7398229;19;1618;-74
2024/01/05 13:39:50;;;;;;;;;;;18.60;47.90;;;;;;7399035;19;1475;-74
2024/01/05 13:42:15;;;;;;;;;;;18.60;47.90;;;;;;7397953;19;1364;-75
2024/01/05 13:44:41;;;;;;;;;;;18.60;47.90;;;;;;7398197;19;1606;-74
2024/01/05 13:47:06;;;;;;;;;;;18.50;48.50;;;;;;7398448;19;1365;-74
2024/01/05 13:49:32;;;;;;;;;;;18.50;47.80;;;;;;7396418;19;1858;-74
2024/01/05 13:51:58;;;;;;;;;;;18.50;47.70;;;;;;7398163;19;1430;-74
2024/01/05 13:54:23;;;;;;;;;;;18.50;47.80;;;;;;7399679;19;1361;-74
2024/01/05 13:56:48;;;;;;;;;;;18.50;47.80;;;;;;7398147;19;1592;-74
2024/01/05 13:59:14;;;;;;;;;;;18.50;47.80;;;;;;7399346;19;1536;-74
2024/01/05 14:01:43;;;;;;;;;;;18.40;47.50;;;;;;7396425;19;1563;-74
2024/01/05 14:04:08;;;;;;;;;;;18.50;47.70;;;;;;7397302;19;839;-74
2024/01/05 14:06:34;;;;;;;;;;;18.40;47.80;;;;;;7398918;19;1581;-74
2024/01/05 14:09:00;;;;;;;;;;;18.40;47.90;;;;;;7394411;19;3793;-74
2024/01/05 14:11:26;;;;;;;;;;;18.40;48.10;;;;;;7395138;19;1515;-74
2024/01/05 14:13:52;;;;;;;;;;;18.40;48.30;;;;;;7395265;19;3308;-74
2024/01/05 14:16:17;;;;;;;;;;;18.40;48.50;;;;;;7391831;19;3140;-73
2024/01/05 14:18:43;;;;;;;;;;;18.40;48.50;;;;;;7395581;19;4515;-74
2024/01/05 14:21:08;;;;;;;;;;;18.40;48.70;;;;;;7397414;19;1596;-74
2024/01/05 14:23:34;;;;;;;;;;;18.40;48.90;;;;;;7394808;19;1524;-74
2024/01/05 14:25:59;;;;;;;;;;;18.40;49.10;;;;;;7394781;19;796;-74